createdAt,value
2022-10-17T00:00:40.381Z,88.11
2022-10-17T00:03:11.240Z,88.63
2022-10-17T00:05:46.427Z,89.69
2022-10-17T00:08:18.773Z,89.72
2022-10-17T00:10:58.968Z,88.47
2022-10-17T00:13:29.215Z,88.01
2022-10-17T00:15:59.526Z,87.20
2022-10-17T00:18:29.854Z,87.87
2022-10-17T00:21:00.200Z,88.98
2022-10-17T00:23:31.463Z,88.79
2022-10-17T00:26:03.885Z,88.64
2022-10-17T00:28:34.661Z,88.37
2022-10-17T00:31:07.744Z,88.90
2022-10-17T00:33:38.362Z,88.40
2022-10-17T00:36:15.312Z,89.07
2022-10-17T00:38:47.709Z,88.95
2022-10-17T00:41:20.728Z,87.33
2022-10-17T00:44:28.595Z,87.66
2022-10-17T00:47:00.175Z,87.54
2022-10-17T00:49:34.172Z,87.96
2022-10-17T00:52:10.457Z,86.73
2022-10-17T00:54:46.434Z,87.08
2022-10-17T00:57:18.416Z,88.42
2022-10-17T00:59:54.331Z,87.81
2022-10-17T01:02:24.985Z,87.73
2022-10-17T01:04:58.083Z,87.55
2022-10-17T01:07:33.289Z,87.26
2022-10-17T01:10:09.093Z,87.70
2022-10-17T01:12:47.738Z,87.66
2022-10-17T01:15:38.384Z,88.00
2022-10-17T01:18:41.523Z,88.33
2022-10-17T01:21:33.801Z,87.84
2022-10-17T01:24:13.052Z,87.70
2022-10-17T01:27:01.817Z,86.92
2022-10-17T01:30:06.134Z,87.46
2022-10-17T01:32:47.336Z,88.31
2022-10-17T01:35:28.153Z,86.88
2022-10-17T01:38:20.226Z,86.42
2022-10-17T01:40:59.387Z,86.05
2022-10-17T01:43:46.128Z,86.65
2022-10-17T01:46:26.924Z,86.77
2022-10-17T01:49:00.219Z,86.93
2022-10-17T01:51:46.696Z,86.88
2022-10-17T01:54:42.544Z,87.46
2022-10-17T01:57:26.403Z,86.26
2022-10-17T01:59:58.792Z,86.38
2022-10-17T02:02:29.986Z,86.58
2022-10-17T02:07:32.055Z,86.74
2022-10-17T02:10:02.593Z,86.78
2022-10-17T02:12:36.916Z,86.42
2022-10-17T02:15:09.948Z,87.93
2022-10-17T02:17:55.890Z,87.28
2022-10-17T02:20:54.305Z,87.12
2022-10-17T02:23:41.178Z,87.28
2022-10-17T02:26:25.160Z,88.25
2022-10-17T02:29:11.819Z,88.14
2022-10-17T02:32:09.824Z,88.16
2022-10-17T02:34:50.920Z,88.93
2022-10-17T02:37:29.830Z,89.03
2022-10-17T02:40:03.437Z,89.16
2022-10-17T02:42:34.683Z,89.60
2022-10-17T02:45:08.132Z,89.26
2022-10-17T02:48:10.637Z,89.56
2022-10-17T02:50:54.643Z,90.04
2022-10-17T02:53:43.594Z,89.77
2022-10-17T02:56:20.640Z,90.33
2022-10-17T02:58:59.359Z,91.03
2022-10-17T03:01:30.941Z,90.43
2022-10-17T03:04:13.070Z,90.57
2022-10-17T03:06:46.830Z,91.11
2022-10-17T03:09:17.406Z,90.79
2022-10-17T03:11:47.901Z,90.75
2022-10-17T03:14:18.144Z,90.98
2022-10-17T03:16:49.097Z,90.97
2022-10-17T03:19:21.101Z,90.58
2022-10-17T03:21:51.477Z,91.16
2022-10-17T03:24:21.615Z,91.16
2022-10-17T03:26:51.972Z,91.17
2022-10-17T03:29:22.263Z,91.03
2022-10-17T03:31:52.743Z,90.79
2022-10-17T03:34:22.524Z,90.33
2022-10-17T03:36:52.663Z,90.49
2022-10-17T03:39:23.382Z,90.86
2022-10-17T03:41:53.487Z,90.95
2022-10-17T03:44:23.817Z,91.12
2022-10-17T03:46:54.231Z,91.25
2022-10-17T03:49:23.962Z,90.99
2022-10-17T03:51:54.057Z,91.41
2022-10-17T03:54:24.943Z,91.45
2022-10-17T03:59:25.846Z,92.21
2022-10-17T04:02:03.846Z,92.34
2022-10-17T04:04:34.066Z,92.75
2022-10-17T04:07:03.794Z,92.16
2022-10-17T04:09:33.889Z,93.06
2022-10-17T04:12:10.158Z,93.70
2022-10-17T04:14:40.992Z,93.99
2022-10-17T04:17:11.640Z,94.04
2022-10-17T04:19:41.971Z,94.17
2022-10-17T04:22:12.206Z,94.47
2022-10-17T04:24:42.864Z,95.18
2022-10-17T04:27:21.757Z,95.28
2022-10-17T04:29:51.526Z,94.97
2022-10-17T04:32:27.495Z,95.96
2022-10-17T04:35:05.815Z,96.34
2022-10-17T04:37:36.289Z,96.59
2022-10-17T04:40:13.369Z,96.99
2022-10-17T04:42:44.367Z,96.86
2022-10-17T04:45:17.484Z,96.95
2022-10-17T04:47:49.092Z,96.86
2022-10-17T04:50:19.665Z,95.84
2022-10-17T04:53:07.878Z,96.88
2022-10-17T04:55:41.566Z,97.05
2022-10-17T04:58:11.815Z,97.22
2022-10-17T05:00:42.395Z,97.21
2022-10-17T05:03:22.501Z,97.36
2022-10-17T05:05:52.767Z,97.30
2022-10-17T05:08:22.538Z,97.08
2022-10-17T05:10:53.510Z,97.33
2022-10-17T05:13:23.193Z,96.58
2022-10-17T05:15:53.751Z,97.32
2022-10-17T05:18:23.554Z,96.74
2022-10-17T05:20:54.225Z,97.53
2022-10-17T05:23:24.531Z,97.35
2022-10-17T05:25:58.139Z,97.06
2022-10-17T05:28:30.056Z,97.01
2022-10-17T05:31:10.989Z,96.31
2022-10-17T05:33:42.234Z,96.27
2022-10-17T05:36:13.721Z,96.25
2022-10-17T05:38:44.524Z,96.72
2022-10-17T05:41:14.987Z,96.44
2022-10-17T05:43:45.639Z,96.17
2022-10-17T05:46:20.362Z,96.03
2022-10-17T05:48:50.535Z,95.83
2022-10-17T05:51:20.677Z,96.14
2022-10-17T05:53:50.979Z,95.89
2022-10-17T05:56:28.944Z,95.82
2022-10-17T05:59:01.055Z,95.73
2022-10-17T06:01:55.074Z,95.79
2022-10-17T06:04:25.255Z,95.80
2022-10-17T06:06:57.463Z,96.29
2022-10-17T06:09:27.824Z,96.73
2022-10-17T06:11:59.203Z,96.61
2022-10-17T06:14:29.376Z,96.85
2022-10-17T06:17:03.862Z,96.60
2022-10-17T06:19:33.566Z,96.27
2022-10-17T06:22:03.596Z,96.20
2022-10-17T06:24:34.934Z,95.39
2022-10-17T06:27:11.010Z,95.38
2022-10-17T06:29:43.718Z,95.63
2022-10-17T06:32:15.077Z,95.78
2022-10-17T06:34:48.932Z,95.42
2022-10-17T06:37:19.503Z,95.36
2022-10-17T06:39:50.015Z,95.61
2022-10-17T06:42:24.018Z,95.63
2022-10-17T06:45:10.955Z,95.75
2022-10-17T06:47:48.068Z,95.85
2022-10-17T06:50:31.114Z,96.10
2022-10-17T06:53:11.239Z,95.58
2022-10-17T06:56:13.597Z,95.47
2022-10-17T06:58:59.096Z,95.03
2022-10-17T07:01:37.320Z,95.02
2022-10-17T07:04:07.942Z,94.67
2022-10-17T07:06:40.170Z,94.82
2022-10-17T07:09:18.308Z,94.29
2022-10-17T07:11:48.523Z,94.07
2022-10-17T07:14:21.027Z,94.49
2022-10-17T07:16:51.419Z,94.27
2022-10-17T07:19:24.769Z,94.40
2022-10-17T07:21:55.633Z,94.53
2022-10-17T07:24:25.848Z,95.06
2022-10-17T07:27:01.603Z,94.78
2022-10-17T07:29:31.315Z,94.46
2022-10-17T07:32:29.986Z,94.74
2022-10-17T07:35:01.842Z,94.62
2022-10-17T07:37:32.536Z,94.83
2022-10-17T07:40:03.385Z,94.67
2022-10-17T07:42:33.082Z,94.57
2022-10-17T07:45:03.579Z,95.25
2022-10-17T07:47:36.959Z,95.06
2022-10-17T07:50:10.393Z,94.76
2022-10-17T07:52:40.503Z,94.51
2022-10-17T07:55:11.404Z,95.08
2022-10-17T07:57:41.604Z,94.97
2022-10-17T08:00:12.635Z,95.31
2022-10-17T08:02:42.826Z,94.96
2022-10-17T08:05:12.994Z,95.14
2022-10-17T08:07:43.060Z,94.72
2022-10-17T08:10:17.067Z,95.05
2022-10-17T08:12:47.411Z,94.23
2022-10-17T08:15:17.699Z,94.80
2022-10-17T08:17:48.261Z,94.56
2022-10-17T08:20:18.636Z,94.62
2022-10-17T08:22:54.738Z,94.71
2022-10-17T08:25:26.195Z,95.04
2022-10-17T08:27:56.505Z,94.99
2022-10-17T08:30:26.251Z,94.32
2022-10-17T08:32:57.487Z,95.19
2022-10-17T08:35:27.858Z,95.06
2022-10-17T08:38:00.546Z,94.85
2022-10-17T08:40:36.863Z,94.71
2022-10-17T08:43:35.330Z,94.67
2022-10-17T08:46:08.150Z,94.89
2022-10-17T08:48:46.489Z,93.92
2022-10-17T08:51:31.952Z,93.93
2022-10-17T08:54:20.545Z,94.01
2022-10-17T08:56:56.899Z,94.05
2022-10-17T08:59:32.164Z,93.88
2022-10-17T09:02:28.097Z,93.89
2022-10-17T09:05:35.612Z,94.02
2022-10-17T09:08:33.293Z,93.73
2022-10-17T09:11:11.700Z,93.84
2022-10-17T09:14:08.234Z,93.90
2022-10-17T09:16:47.246Z,93.44
2022-10-17T09:19:33.207Z,93.52
2022-10-17T09:22:25.583Z,93.41
2022-10-17T09:25:17.223Z,93.50
2022-10-17T09:28:11.670Z,93.62
2022-10-17T09:30:48.641Z,93.41
2022-10-17T09:33:35.112Z,93.19
2022-10-17T09:36:30.012Z,93.20
2022-10-17T09:39:14.164Z,93.17
2022-10-17T09:41:57.026Z,93.15
2022-10-17T09:44:49.574Z,93.42
2022-10-17T09:47:43.267Z,92.63
2022-10-17T09:50:32.609Z,92.49
2022-10-17T09:53:28.612Z,92.53
2022-10-17T09:56:05.867Z,92.01
2022-10-17T09:58:50.581Z,92.39
2022-10-17T10:01:24.085Z,92.44
2022-10-17T10:04:16.035Z,92.15
2022-10-17T10:07:13.650Z,92.31
2022-10-17T10:09:49.465Z,92.63
2022-10-17T10:12:35.044Z,92.06
2022-10-17T10:15:35.887Z,92.22
2022-10-17T10:18:26.111Z,91.69
2022-10-17T10:21:11.490Z,90.90
2022-10-17T10:23:46.741Z,90.91
2022-10-17T10:26:27.196Z,90.49
2022-10-17T10:29:09.503Z,89.63
2022-10-17T10:31:42.021Z,89.97
2022-10-17T10:34:32.814Z,89.91
2022-10-17T10:37:17.143Z,90.58
2022-10-17T10:39:56.686Z,89.30
2022-10-17T10:42:31.728Z,89.74
2022-10-17T10:48:26.162Z,89.26
2022-10-17T10:50:58.932Z,88.59
2022-10-17T10:53:44.267Z,89.75
2022-10-17T10:56:51.142Z,90.47
2022-10-17T11:00:01.578Z,90.31
2022-10-17T11:02:34.652Z,90.33
2022-10-17T11:05:16.135Z,90.31
2022-10-17T11:08:01.793Z,90.12
2022-10-17T11:10:59.517Z,89.86
2022-10-17T11:13:43.124Z,89.47
2022-10-17T11:16:30.869Z,88.98
2022-10-17T11:19:26.268Z,88.43
2022-10-17T11:22:14.560Z,87.78
2022-10-17T11:25:25.865Z,86.77
2022-10-17T11:27:58.687Z,85.92
2022-10-17T11:30:41.682Z,84.74
2022-10-17T11:33:17.484Z,85.31
2022-10-17T11:35:51.684Z,84.97
2022-10-17T11:38:43.140Z,84.12
2022-10-17T11:41:28.637Z,85.81
2022-10-17T11:44:03.728Z,83.86
2022-10-17T11:46:38.002Z,83.94
2022-10-17T11:49:19.834Z,84.22
2022-10-17T11:52:37.786Z,83.18
2022-10-17T11:55:25.173Z,84.22
2022-10-17T11:58:17.795Z,81.52
2022-10-17T12:01:02.981Z,82.05
2022-10-17T12:04:00.359Z,80.62
2022-10-17T12:07:04.463Z,80.45
2022-10-17T12:09:59.719Z,80.62
2022-10-17T12:12:35.679Z,79.61
2022-10-17T12:15:11.687Z,78.82
2022-10-17T12:17:47.743Z,78.67
2022-10-17T12:20:26.564Z,79.38
2022-10-17T12:23:07.936Z,79.88
2022-10-17T12:25:49.442Z,78.52
2022-10-17T12:28:28.131Z,79.48
2022-10-17T12:30:58.289Z,79.57
2022-10-17T12:33:42.569Z,78.73
2022-10-17T12:36:24.529Z,78.10
2022-10-17T12:39:18.973Z,77.77
2022-10-17T12:41:48.985Z,76.77
2022-10-17T12:44:38.081Z,76.00
2022-10-17T12:47:11.026Z,77.09
2022-10-17T12:49:56.590Z,77.94
2022-10-17T12:52:38.494Z,77.05
2022-10-17T12:55:19.605Z,77.01
2022-10-17T12:57:49.757Z,76.41
2022-10-17T13:00:38.968Z,76.38
2022-10-17T13:03:45.635Z,76.24
2022-10-17T13:06:27.305Z,76.32
2022-10-17T13:09:05.591Z,74.65
2022-10-17T13:11:38.240Z,75.37
2022-10-17T13:14:15.066Z,75.82
2022-10-17T13:17:08.338Z,74.93
2022-10-17T13:19:48.157Z,72.88
2022-10-17T13:22:27.013Z,71.84
2022-10-17T13:25:10.308Z,72.81
2022-10-17T13:27:43.279Z,72.47
2022-10-17T13:30:31.124Z,72.92
2022-10-17T13:33:03.560Z,69.26
2022-10-17T13:35:59.599Z,72.29
2022-10-17T13:38:35.679Z,69.83
2022-10-17T13:41:34.796Z,68.07
2022-10-17T13:44:15.545Z,72.23
2022-10-17T13:46:46.630Z,73.87
2022-10-17T13:49:28.037Z,72.92
2022-10-17T13:51:59.784Z,73.34
2022-10-17T13:54:33.099Z,71.65
2022-10-17T13:57:05.883Z,72.65
2022-10-17T13:59:44.817Z,73.21
2022-10-17T14:02:22.565Z,73.54
2022-10-17T14:05:19.778Z,71.06
2022-10-17T14:08:21.868Z,69.11
2022-10-17T14:10:51.298Z,71.28
2022-10-17T14:13:27.293Z,70.86
2022-10-17T14:16:01.489Z,70.86
2022-10-17T14:18:37.758Z,71.41
2022-10-17T14:24:27.216Z,67.28
2022-10-17T14:27:02.663Z,64.87
2022-10-17T14:29:51.066Z,67.03
2022-10-17T14:32:22.686Z,66.04
2022-10-17T14:35:10.532Z,64.27
2022-10-17T14:37:51.075Z,62.77
2022-10-17T14:40:26.244Z,61.94
2022-10-17T14:42:59.582Z,62.46
2022-10-17T14:45:34.006Z,65.03
2022-10-17T14:48:17.684Z,67.25
2022-10-17T14:51:15.855Z,68.29
2022-10-17T14:54:34.146Z,69.96
2022-10-17T14:57:16.533Z,70.35
2022-10-17T14:59:55.471Z,68.24
2022-10-17T15:02:28.186Z,69.15
2022-10-17T15:04:58.713Z,69.32
2022-10-17T15:07:28.897Z,68.86
2022-10-17T15:09:58.633Z,69.09
2022-10-17T15:12:28.710Z,65.94
2022-10-17T15:14:59.425Z,64.82
2022-10-17T15:17:32.207Z,64.64
2022-10-17T15:20:02.942Z,63.24
2022-10-17T15:22:33.265Z,61.09
2022-10-17T15:25:03.537Z,63.27
2022-10-17T15:27:33.645Z,64.07
2022-10-17T15:30:03.610Z,60.73
2022-10-17T15:32:33.891Z,59.47
2022-10-17T15:35:03.865Z,57.11
2022-10-17T15:37:36.128Z,59.85
2022-10-17T15:40:06.778Z,60.61
2022-10-17T15:42:36.823Z,60.63
2022-10-17T15:45:06.532Z,61.18
2022-10-17T15:47:36.508Z,60.97
2022-10-17T15:50:09.977Z,62.77
2022-10-17T15:52:40.114Z,61.51
2022-10-17T15:55:12.162Z,58.63
2022-10-17T15:57:44.450Z,57.73
2022-10-17T16:00:26.167Z,60.63
2022-10-17T16:02:56.447Z,62.08
2022-10-17T16:05:27.511Z,63.18
2022-10-17T16:07:59.023Z,61.77
2022-10-17T16:10:29.623Z,56.97
2022-10-17T16:12:59.576Z,59.33
2022-10-17T16:15:30.380Z,61.54
2022-10-17T16:18:02.829Z,62.66
2022-10-17T16:20:36.758Z,63.17
2022-10-17T16:23:08.866Z,61.40
2022-10-17T16:25:41.237Z,62.84
2022-10-17T16:28:13.125Z,63.22
2022-10-17T16:30:47.395Z,64.16
2022-10-17T16:33:18.996Z,62.85
2022-10-17T16:35:50.763Z,60.47
2022-10-17T16:38:21.365Z,58.68
2022-10-17T16:40:51.759Z,56.92
2022-10-17T16:43:21.919Z,56.10
2022-10-17T16:45:52.056Z,56.13
2022-10-17T16:48:23.134Z,54.13
2022-10-17T16:50:56.256Z,52.98
2022-10-17T16:53:26.404Z,55.23
2022-10-17T16:56:06.548Z,53.67
2022-10-17T16:58:36.776Z,52.93
2022-10-17T17:01:07.572Z,55.07
2022-10-17T17:03:42.534Z,53.27
2022-10-17T17:06:19.082Z,55.08
2022-10-17T17:08:49.704Z,55.17
2022-10-17T17:11:22.108Z,56.77
2022-10-17T17:13:53.147Z,55.57
2022-10-17T17:16:25.410Z,56.43
2022-10-17T17:19:00.905Z,56.82
2022-10-17T17:21:33.183Z,58.50
2022-10-17T17:24:04.900Z,59.21
2022-10-17T17:26:38.429Z,60.23
2022-10-17T17:29:17.059Z,57.38
2022-10-17T17:31:47.276Z,55.90
2022-10-17T17:34:18.418Z,52.69
2022-10-17T17:36:48.813Z,53.39
2022-10-17T17:39:18.219Z,52.79
2022-10-17T17:41:48.155Z,53.14
2022-10-17T17:44:18.430Z,52.69
2022-10-17T17:46:49.057Z,54.15
2022-10-17T17:49:19.214Z,54.71
2022-10-17T17:51:49.336Z,52.81
2022-10-17T17:54:19.605Z,52.18
2022-10-17T17:56:49.770Z,52.01
2022-10-17T17:59:19.785Z,53.95
2022-10-17T18:01:50.115Z,52.81
2022-10-17T18:04:20.364Z,53.85
2022-10-17T18:06:50.604Z,56.44
2022-10-17T18:09:21.601Z,55.48
2022-10-17T18:11:51.758Z,55.98
2022-10-17T18:14:25.219Z,56.68
2022-10-17T18:16:55.859Z,53.48
2022-10-17T18:21:57.529Z,53.23
2022-10-17T18:24:28.245Z,51.59
2022-10-17T18:27:01.000Z,53.02
2022-10-17T18:29:31.202Z,53.52
2022-10-17T18:32:02.181Z,55.64
2022-10-17T18:34:32.343Z,56.44
2022-10-17T18:37:03.779Z,57.58
2022-10-17T18:39:34.139Z,58.63
2022-10-17T18:42:04.156Z,58.32
2022-10-17T18:44:34.563Z,57.13
2022-10-17T18:47:04.770Z,56.14
2022-10-17T18:49:34.952Z,53.99
2022-10-17T18:52:05.402Z,55.63
2022-10-17T18:54:35.933Z,53.66
2022-10-17T18:57:06.375Z,54.60
2022-10-17T18:59:36.664Z,54.36
2022-10-17T19:02:07.540Z,54.59
2022-10-17T19:04:37.771Z,53.90
2022-10-17T19:07:07.169Z,54.57
2022-10-17T19:09:36.936Z,53.50
2022-10-17T19:12:06.759Z,55.21
2022-10-17T19:14:36.828Z,53.63
2022-10-17T19:17:10.872Z,53.29
2022-10-17T19:19:51.441Z,56.09
2022-10-17T19:22:21.583Z,56.54
2022-10-17T19:24:51.675Z,59.81
2022-10-17T19:27:22.238Z,55.38
2022-10-17T19:29:52.656Z,56.47
2022-10-17T19:32:23.098Z,57.29
2022-10-17T19:34:53.797Z,56.61
2022-10-17T19:37:42.619Z,56.27
2022-10-17T19:40:30.776Z,56.28
2022-10-17T19:43:00.877Z,56.47
2022-10-17T19:45:30.615Z,58.86
2022-10-17T19:48:00.706Z,57.47
2022-10-17T19:50:30.911Z,57.95
2022-10-17T19:53:01.156Z,60.65
2022-10-17T19:55:34.437Z,62.49
2022-10-17T19:58:04.978Z,62.67
2022-10-17T20:00:35.443Z,63.67
2022-10-17T20:03:07.543Z,64.80
2022-10-17T20:05:39.876Z,65.10
2022-10-17T20:08:10.288Z,68.38
2022-10-17T20:10:40.916Z,68.38
2022-10-17T20:13:11.952Z,67.79
2022-10-17T20:15:42.616Z,68.81
2022-10-17T20:18:12.890Z,69.65
2022-10-17T20:20:52.413Z,69.02
2022-10-17T20:23:23.457Z,70.23
2022-10-17T20:26:13.592Z,69.66
2022-10-17T20:28:52.262Z,65.24
2022-10-17T20:31:23.253Z,62.60
2022-10-17T20:33:58.081Z,66.25
2022-10-17T20:36:28.852Z,65.16
2022-10-17T20:39:00.408Z,68.97
2022-10-17T20:41:30.623Z,71.10
2022-10-17T20:44:00.869Z,70.99
2022-10-17T20:46:44.382Z,70.89
2022-10-17T20:49:20.908Z,69.34
2022-10-17T20:51:51.239Z,71.28
2022-10-17T20:54:23.149Z,71.10
2022-10-17T20:56:53.662Z,71.86
2022-10-17T20:59:25.591Z,72.54
2022-10-17T21:01:56.445Z,73.10
2022-10-17T21:04:45.347Z,73.30
2022-10-17T21:07:17.075Z,72.53
2022-10-17T21:09:47.923Z,73.00
2022-10-17T21:12:26.230Z,73.31
2022-10-17T21:15:07.635Z,73.26
2022-10-17T21:17:37.880Z,74.11
2022-10-17T21:20:08.751Z,74.90
2022-10-17T21:22:38.990Z,74.99
2022-10-17T21:25:10.623Z,74.70
2022-10-17T21:27:40.825Z,75.22
2022-10-17T21:30:11.809Z,76.07
2022-10-17T21:32:57.084Z,75.14
2022-10-17T21:35:27.364Z,75.03
2022-10-17T21:37:57.015Z,74.80
2022-10-17T21:40:27.131Z,75.62
2022-10-17T21:42:56.848Z,75.44
2022-10-17T21:45:26.787Z,75.84
2022-10-17T21:48:12.586Z,76.66
2022-10-17T21:50:44.295Z,76.80
2022-10-17T21:53:14.460Z,77.12
2022-10-17T21:55:44.698Z,77.94
2022-10-17T21:58:14.476Z,77.83
2022-10-17T22:00:44.292Z,78.81
2022-10-17T22:03:16.535Z,79.29
2022-10-17T22:05:47.073Z,79.60
2022-10-17T22:08:17.294Z,80.09
2022-10-17T22:10:47.027Z,80.04
2022-10-17T22:13:17.144Z,80.91
2022-10-17T22:15:47.088Z,79.95
2022-10-17T22:18:17.189Z,81.17
2022-10-17T22:20:47.731Z,81.32
2022-10-17T22:23:17.793Z,81.55
2022-10-17T22:25:55.569Z,81.62
2022-10-17T22:28:27.257Z,82.05
2022-10-17T22:30:58.451Z,82.37
2022-10-17T22:33:28.756Z,82.49
2022-10-17T22:35:59.081Z,83.00
2022-10-17T22:38:29.357Z,83.56
2022-10-17T22:40:59.540Z,84.14
2022-10-17T22:43:29.375Z,83.30
2022-10-17T22:46:04.509Z,84.89
2022-10-17T22:48:35.816Z,85.37
2022-10-17T22:51:06.076Z,85.69
2022-10-17T22:53:38.393Z,85.87
2022-10-17T22:56:18.381Z,86.16
2022-10-17T22:58:48.863Z,86.00
2022-10-17T23:01:23.149Z,86.35
2022-10-17T23:03:54.775Z,86.69
2022-10-17T23:06:25.476Z,86.96
2022-10-17T23:08:56.553Z,86.59
2022-10-17T23:11:26.760Z,86.80
2022-10-17T23:13:56.378Z,85.62
2022-10-17T23:16:26.324Z,86.92
2022-10-17T23:18:55.962Z,86.15
2022-10-17T23:21:25.826Z,86.81
2022-10-17T23:23:55.726Z,86.92
2022-10-17T23:26:25.662Z,87.18
2022-10-17T23:28:56.269Z,86.95
2022-10-17T23:31:26.483Z,86.73
2022-10-17T23:33:57.091Z,86.89
2022-10-17T23:36:27.408Z,87.02
2022-10-17T23:38:58.552Z,85.71
2022-10-17T23:41:28.991Z,86.91
2022-10-17T23:43:58.649Z,86.55
2022-10-17T23:46:28.589Z,87.46
2022-10-17T23:48:58.282Z,85.85
2022-10-17T23:51:28.164Z,87.25
2022-10-17T23:53:58.374Z,87.42
2022-10-17T23:56:28.055Z,86.84
2022-10-17T23:58:57.925Z,87.41
